Time;durP1;ratioP1;P1;durP2;ratioP2;P2;SDS_P1;SDS_P2;PMS_P1;PMS_P2;Temp;Humidity;BMP_temperature;BMP_pressure;BME280_temperature;BME280_humidity;BME280_pressure;Samples;Min_cycle;Max_cycle;Signal;HPM_P1;HPM_P2
2022/07/14 00:00:39;;;;;;;3.17;1.80;;;;;;;21.85;50.64;98380.19;5054975;28;20194;-70
2022/07/14 00:03:06;;;;;;;4.50;1.70;;;;;;;21.80;51.94;98377.50;5054028;28;20291;-70
2022/07/14 00:05:33;;;;;;;1.73;1.63;;;;;;;21.78;51.19;98382.38;5053673;28;20205;-70
2022/07/14 00:07:59;;;;;;;2.27;1.70;;;;;;;21.85;51.14;98374.75;5053887;28;20213;-70
2022/07/14 00:10:26;;;;;;;1.70;1.60;;;;;;;21.83;51.06;98375.03;5053596;28;20372;-70
2022/07/14 00:12:52;;;;;;;2.23;1.50;;;;;;;21.86;50.82;98370.97;5053868;28;20212;-70
2022/07/14 00:15:19;;;;;;;1.97;1.77;;;;;;;21.82;50.64;98362.59;5053713;28;20307;-70
2022/07/14 00:17:45;;;;;;;2.87;1.63;;;;;;;21.84;51.45;98367.75;5054636;28;20296;-71
2022/07/14 00:20:12;;;;;;;2.43;1.70;;;;;;;21.75;52.18;98367.50;5053719;28;20319;-70
2022/07/14 00:22:39;;;;;;;5.43;2.00;;;;;;;21.73;51.71;98363.47;5054440;28;20295;-70
2022/07/14 00:25:07;;;;;;;2.93;1.43;;;;;;;21.72;51.57;98364.56;5053646;28;20201;-70
2022/07/14 00:27:35;;;;;;;3.87;1.77;;;;;;;21.64;51.56;98362.44;5052427;28;20660;-70
2022/07/14 00:30:02;;;;;;;3.23;1.80;;;;;;;21.59;53.12;98365.19;5053218;28;20716;-70
2022/07/14 00:32:28;;;;;;;6.97;1.90;;;;;;;21.49;53.10;98363.38;5053554;28;20296;-70
2022/07/14 00:34:57;;;;;;;4.87;2.03;;;;;;;21.40;53.32;98366.94;5053947;28;20232;-70
2022/07/14 00:37:23;;;;;;;2.63;1.73;;;;;;;21.42;53.49;98360.16;5053794;28;20303;-70
2022/07/14 00:39:56;;;;;;;5.23;1.80;;;;;;;21.61;52.13;98363.03;5053345;28;20320;-70
2022/07/14 00:42:43;;;;;;;4.10;1.83;;;;;;;21.50;53.27;98359.56;5053497;28;20276;-70
2022/07/14 00:45:13;;;;;;;4.70;1.60;;;;;;;21.75;52.60;98358.59;5054259;28;20205;-70
2022/07/14 00:47:41;;;;;;;2.33;2.13;;;;;;;21.58;53.42;98352.75;5053443;28;20193;-70
2022/07/14 00:50:10;;;;;;;3.20;1.70;;;;;;;21.45;54.29;98356.09;5053338;28;20229;-70
2022/07/14 00:52:37;;;;;;;1.97;1.80;;;;;;;21.41;54.68;98363.97;5053048;28;20300;-70
2022/07/14 00:55:04;;;;;;;1.90;1.60;;;;;;;21.26;55.07;98368.66;5052966;28;20629;-70
2022/07/14 00:57:31;;;;;;;2.90;1.57;;;;;;;21.16;55.39;98374.13;5053061;28;20201;-70
2022/07/14 00:59:57;;;;;;;3.80;1.43;;;;;;;21.08;55.83;98372.00;5053606;28;20319;-70
2022/07/14 01:02:24;;;;;;;2.27;1.80;;;;;;;20.95;56.78;98359.91;5052744;28;20743;-70
2022/07/14 01:04:51;;;;;;;2.63;1.77;;;;;;;20.99;56.37;98362.84;5053226;28;20288;-70
2022/07/14 01:07:19;;;;;;;5.37;1.40;;;;;;;20.87;56.50;98365.84;5053107;28;20216;-70
2022/07/14 01:09:46;;;;;;;4.83;1.93;;;;;;;20.83;56.60;98363.97;5053102;28;20315;-70
2022/07/14 01:12:13;;;;;;;3.37;1.90;;;;;;;20.71;57.07;98358.09;5053182;28;20292;-70
2022/07/14 01:14:41;;;;;;;3.37;2.03;;;;;;;20.64;57.91;98362.97;5053129;28;20225;-70
2022/07/14 01:17:09;;;;;;;2.23;1.80;;;;;;;20.61;58.28;98375.13;5053179;28;20617;-70
2022/07/14 01:19:35;;;;;;;4.70;2.10;;;;;;;20.59;58.46;98366.50;5053042;28;20316;-70
2022/07/14 01:22:02;;;;;;;2.10;1.70;;;;;;;20.57;58.17;98365.16;5053050;28;20288;-70
2022/07/14 01:24:29;;;;;;;3.30;2.00;;;;;;;20.56;58.55;98372.44;5052786;28;20236;-70
2022/07/14 01:26:55;;;;;;;5.33;2.00;;;;;;;20.47;58.70;98371.41;5053012;28;20209;-70
2022/07/14 01:29:22;;;;;;;2.00;1.77;;;;;;;20.44;59.30;98366.53;5052931;28;20229;-70
2022/07/14 01:31:49;;;;;;;4.00;2.00;;;;;;;20.40;59.40;98362.78;5052976;28;20207;-70
2022/07/14 01:34:15;;;;;;;2.87;2.17;;;;;;;20.36;59.57;98366.28;5052844;28;20308;-70
2022/07/14 01:36:42;;;;;;;3.97;2.20;;;;;;;20.26;60.25;98358.22;5052585;28;20672;-70
2022/07/14 01:39:08;;;;;;;4.73;2.53;;;;;;;20.26;59.73;98353.63;5053714;28;20333;-70
2022/07/14 01:41:35;;;;;;;2.63;2.20;;;;;;;20.19;60.18;98361.19;5056666;28;20292;-70
2022/07/14 01:44:03;;;;;;;3.53;1.90;;;;;;;20.10;60.75;98362.03;5056351;28;20703;-70
2022/07/14 01:46:30;;;;;;;2.90;2.10;;;;;;;20.06;60.56;98361.72;5056632;28;20212;-70
2022/07/14 01:48:56;;;;;;;3.13;2.10;;;;;;;20.08;61.60;98364.97;5056465;28;20619;-70
2022/07/14 01:51:22;;;;;;;2.90;2.57;;;;;;;20.11;60.85;98363.66;5056238;28;20291;-70
2022/07/14 01:53:50;;;;;;;2.07;1.90;;;;;;;20.05;60.92;98360.13;5056063;28;20714;-70
2022/07/14 01:56:16;;;;;;;3.27;2.30;;;;;;;20.02;61.06;98352.56;5056107;28;20686;-70
2022/07/14 01:58:43;;;;;;;4.03;2.50;;;;;;;20.00;61.29;98351.22;5055874;28;20249;-70
2022/07/14 02:03:59;;;;;;;5.67;2.77;;;;;;;19.94;62.43;98344.22;5056368;28;20169;-70
2022/07/14 02:06:25;;;;;;;4.87;2.60;;;;;;;19.90;62.20;98343.91;5056749;28;20220;-70
2022/07/14 02:08:52;;;;;;;3.93;2.17;;;;;;;19.85;63.03;98335.03;5056118;28;20321;-70
2022/07/14 02:14:04;;;;;;;6.33;2.83;;;;;;;19.80;63.08;98337.75;5056142;28;20729;-70
2022/07/14 02:16:31;;;;;;;4.13;2.03;;;;;;;19.80;63.34;98343.94;5056013;28;20209;-70
2022/07/14 02:18:58;;;;;;;3.10;2.27;;;;;;;19.71;63.22;98342.06;5055959;28;20233;-70
2022/07/14 02:21:25;;;;;;;4.17;2.60;;;;;;;19.66;63.32;98333.97;5055719;28;20213;-70
2022/07/14 02:23:52;;;;;;;5.30;2.50;;;;;;;19.68;63.19;98328.03;5055900;28;20208;-70
2022/07/14 02:26:18;;;;;;;4.77;2.57;;;;;;;19.64;64.08;98329.63;5055892;28;20216;-70
2022/07/14 02:28:45;;;;;;;5.97;2.70;;;;;;;19.57;64.08;98322.09;5055703;28;20319;-70
2022/07/14 02:31:12;;;;;;;3.67;2.40;;;;;;;19.52;64.74;98331.81;5055424;28;20300;-70
2022/07/14 02:33:39;;;;;;;3.67;2.90;;;;;;;19.48;64.83;98336.13;5055584;28;20209;-70
2022/07/14 02:36:06;;;;;;;4.03;2.80;;;;;;;19.45;65.07;98327.78;5055483;28;20209;-70
2022/07/14 02:38:33;;;;;;;4.97;2.30;;;;;;;19.43;65.39;98338.81;5055242;28;20781;-70
2022/07/14 02:40:59;;;;;;;4.67;2.57;;;;;;;19.40;65.29;98328.56;5055556;28;20300;-70
2022/07/14 02:43:26;;;;;;;4.20;2.63;;;;;;;19.33;65.53;98327.22;5055114;28;20206;-70
2022/07/14 02:45:52;;;;;;;3.73;2.47;;;;;;;19.32;65.81;98331.78;5055445;28;20201;-70
2022/07/14 02:48:19;;;;;;;4.00;2.70;;;;;;;19.29;65.97;98324.25;5055321;28;20225;-70
2022/07/14 02:50:45;;;;;;;4.87;2.40;;;;;;;19.27;66.53;98322.91;5054404;28;20300;-70
2022/07/14 02:53:12;;;;;;;5.73;2.43;;;;;;;19.19;67.17;98329.56;5055375;28;20251;-70
2022/07/14 02:55:38;;;;;;;4.07;2.47;;;;;;;19.24;66.62;98326.94;5055105;28;20227;-70
2022/07/14 02:58:06;;;;;;;4.77;2.33;;;;;;;19.24;66.68;98326.13;5054713;28;20301;-70
2022/07/14 03:00:33;;;;;;;4.20;2.43;;;;;;;19.21;67.23;98332.00;5055188;28;20209;-70
2022/07/14 03:03:01;;;;;;;5.67;2.30;;;;;;;19.21;66.34;98335.53;5055048;28;20205;-70
2022/07/14 03:05:28;;;;;;;2.90;1.97;;;;;;;19.21;66.06;98335.53;5055101;28;20208;-70
2022/07/14 03:07:54;;;;;;;2.90;2.00;;;;;;;19.19;66.75;98334.16;5054760;28;20300;-70
2022/07/14 03:10:20;;;;;;;6.40;2.10;;;;;;;19.12;66.63;98322.81;5054691;28;20299;-70
2022/07/14 03:12:47;;;;;;;2.43;1.87;;;;;;;19.13;66.71;98322.56;5054913;28;20292;-70
2022/07/14 03:15:13;;;;;;;2.40;1.70;;;;;;;19.15;67.05;98320.44;5054403;28;20225;-70
2022/07/14 03:17:40;;;;;;;3.10;1.80;;;;;;;19.10;66.84;98316.91;5054468;28;20213;-70
2022/07/14 03:20:08;;;;;;;2.93;1.70;;;;;;;19.04;67.70;98318.78;5054666;28;20253;-70
2022/07/14 03:22:34;;;;;;;5.17;1.87;;;;;;;19.01;68.02;98316.59;5054650;28;20621;-70
2022/07/14 03:25:01;;;;;;;3.93;1.90;;;;;;;18.93;68.56;98313.63;5054638;28;20292;-70
2022/07/14 03:27:27;;;;;;;2.50;1.60;;;;;;;18.89;68.87;98307.97;5054182;28;20682;-70
2022/07/14 03:29:54;;;;;;;2.93;2.10;;;;;;;18.89;69.05;98318.75;5054378;28;20229;-70
2022/07/14 03:32:20;;;;;;;3.47;1.80;;;;;;;18.89;69.03;98324.13;5053936;28;20205;-70
2022/07/14 03:34:46;;;;;;;2.03;1.83;;;;;;;18.87;69.69;98323.56;5054191;28;20311;-70
2022/07/14 03:37:13;;;;;;;2.20;2.00;;;;;;;18.83;69.28;98319.78;5054287;28;20205;-70
2022/07/14 03:39:39;;;;;;;5.17;2.33;;;;;;;18.79;69.50;98318.72;5054291;28;20232;-70
2022/07/14 03:42:06;;;;;;;2.60;2.30;;;;;;;18.81;69.71;98321.13;5053985;28;20201;-70
2022/07/14 03:44:32;;;;;;;2.43;1.90;;;;;;;18.82;69.91;98326.25;5054076;28;20205;-70
2022/07/14 03:46:59;;;;;;;4.10;2.30;;;;;;;18.73;69.88;98322.44;5054103;28;20205;-70
2022/07/14 03:49:25;;;;;;;2.70;2.00;;;;;;;18.73;70.09;98317.06;5053752;28;20716;-70
2022/07/14 03:51:51;;;;;;;5.13;2.73;;;;;;;18.72;70.66;98326.22;5054076;28;20301;-70
2022/07/14 03:54:18;;;;;;;5.30;2.50;;;;;;;18.74;70.78;98325.97;5053822;28;20216;-70
2022/07/14 03:56:44;;;;;;;4.33;2.43;;;;;;;18.76;71.01;98330.00;5053825;28;20570;-70
2022/07/14 03:59:11;;;;;;;6.47;2.60;;;;;;;18.75;70.19;98328.41;5053542;28;20316;-70
2022/07/14 04:01:40;;;;;;;3.23;2.53;;;;;;;18.69;70.39;98334.81;5053739;28;20220;-69
2022/07/14 04:04:06;;;;;;;4.03;2.37;;;;;;;18.68;69.97;98322.44;5053525;28;20205;-70
2022/07/14 04:06:33;;;;;;;6.13;3.07;;;;;;;18.70;69.53;98324.88;5053317;28;20635;-69
2022/07/14 04:09:00;;;;;;;4.53;2.90;;;;;;;18.72;70.65;98325.41;5053507;28;20225;-70
2022/07/14 04:11:27;;;;;;;3.90;2.33;;;;;;;18.76;69.96;98326.50;5053404;28;20210;-70
2022/07/14 04:13:53;;;;;;;8.00;2.87;;;;;;;18.78;70.92;98321.66;5054095;28;20216;-70
2022/07/14 04:16:20;;;;;;;6.70;2.50;;;;;;;18.85;70.14;98327.59;5053557;28;20327;-69
2022/07/14 04:18:46;;;;;;;7.57;2.50;;;;;;;18.89;68.03;98326.00;5052966;28;20232;-69
2022/07/14 04:21:12;;;;;;;3.97;2.53;;;;;;;18.94;68.85;98334.09;5052983;28;20541;-69
2022/07/14 04:23:39;;;;;;;5.33;2.50;;;;;;;18.92;68.67;98347.03;5053112;28;20295;-69
2022/07/14 04:26:05;;;;;;;4.83;2.57;;;;;;;18.89;68.44;98343.00;5052985;28;20209;-69
2022/07/14 04:28:32;;;;;;;5.50;2.60;;;;;;;18.87;69.02;98347.03;5053019;28;20221;-70
2022/07/14 04:30:58;;;;;;;4.50;2.53;;;;;;;18.78;69.97;98341.31;5053183;28;20300;-69
2022/07/14 04:33:25;;;;;;;4.80;2.40;;;;;;;18.80;69.52;98339.19;5052578;28;20683;-69
2022/07/14 04:35:51;;;;;;;5.00;2.50;;;;;;;18.77;70.31;98342.41;5052595;28;20691;-69
2022/07/14 04:38:18;;;;;;;3.80;2.60;;;;;;;18.75;71.03;98333.78;5052779;28;20227;-69
2022/07/14 04:40:53;;;;;;;5.67;2.20;;;;;;;18.87;70.17;98339.72;5052634;28;20616;-69
2022/07/14 04:43:20;;;;;;;3.80;2.33;;;;;;;18.91;70.29;98348.91;5052799;28;20291;-69
2022/07/14 04:45:46;;;;;;;4.77;1.93;;;;;;;19.03;70.10;98343.28;5052551;28;20205;-69
2022/07/14 04:48:13;;;;;;;4.67;2.13;;;;;;;19.11;69.69;98343.59;5052982;28;20205;-70
2022/07/14 04:53:24;;;;;;;3.00;1.50;;;;;;;19.26;69.13;98350.91;5052714;28;20219;-69
2022/07/14 04:55:50;;;;;;;3.30;1.93;;;;;;;19.30;68.76;98350.13;5052615;28;20320;-70
2022/07/14 04:58:17;;;;;;;2.27;2.07;;;;;;;19.43;67.66;98343.38;5052628;28;20225;-70
2022/07/14 05:00:43;;;;;;;5.57;2.10;;;;;;;19.48;68.11;98343.38;5053412;28;20186;-70
2022/07/14 05:03:10;;;;;;;2.13;1.93;;;;;;;19.58;67.17;98343.38;5052980;28;20304;-70
2022/07/14 05:05:36;;;;;;;2.67;2.00;;;;;;;19.68;67.01;98341.50;5052682;28;20212;-70
2022/07/14 05:08:02;;;;;;;4.87;2.30;;;;;;;19.78;65.14;98338.81;5052020;28;20207;-70
2022/07/14 05:10:29;;;;;;;4.73;2.00;;;;;;;20.09;62.42;98346.91;5052636;28;20301;-70
2022/07/14 05:12:55;;;;;;;3.13;2.00;;;;;;;20.50;61.10;98341.16;5052365;28;20209;-70
2022/07/14 05:15:22;;;;;;;3.73;2.00;;;;;;;20.82;60.06;98348.84;5055105;28;20355;-70
2022/07/14 05:17:48;;;;;;;5.00;1.90;;;;;;;20.98;59.47;98347.72;5056272;28;20291;-70
2022/07/14 05:20:14;;;;;;;4.63;2.17;;;;;;;21.24;59.91;98343.78;5056315;28;20228;-69
2022/07/14 05:22:42;;;;;;;4.90;2.37;;;;;;;21.17;59.28;98346.81;5055777;28;20664;-70
2022/07/14 05:25:11;;;;;;;4.33;2.43;;;;;;;21.80;57.58;98339.63;5056463;28;20249;-69
2022/07/14 05:27:39;;;;;;;5.70;2.37;;;;;;;22.30;56.24;98331.00;5055895;28;20667;-70
2022/07/14 05:30:10;;;;;;;3.93;2.13;;;;;;;22.62;56.03;98331.22;5056204;28;20232;-70
2022/07/14 05:32:37;;;;;;;5.53;2.53;;;;;;;22.50;56.68;98333.50;5055908;28;20315;-69
2022/07/14 05:35:05;;;;;;;5.13;2.50;;;;;;;22.61;55.04;98335.81;5055957;28;20221;-69
2022/07/14 05:37:32;;;;;;;6.17;2.27;;;;;;;22.13;57.13;98323.34;5056172;28;20239;-70
2022/07/14 05:39:59;;;;;;;3.67;2.40;;;;;;;22.01;58.23;98322.06;5056178;28;20229;-69
2022/07/14 05:42:25;;;;;;;2.47;1.97;;;;;;;21.85;57.83;98318.72;5055713;28;20240;-70
2022/07/14 05:44:52;;;;;;;2.70;2.13;;;;;;;21.70;58.06;98318.84;5056088;28;20209;-70
2022/07/14 05:47:18;;;;;;;6.70;2.30;;;;;;;21.54;57.55;98314.63;5055987;28;20205;-70
2022/07/14 05:49:45;;;;;;;2.67;2.10;;;;;;;21.64;58.09;98313.72;5055819;28;20311;-69
2022/07/14 05:52:12;;;;;;;3.23;1.80;;;;;;;21.75;58.03;98316.09;5055119;28;20603;-70
2022/07/14 05:54:39;;;;;;;4.10;2.50;;;;;;;21.83;56.66;98309.25;5055309;28;20205;-70
2022/07/14 05:57:08;;;;;;;5.07;2.30;;;;;;;21.79;56.61;98310.94;5054987;28;20574;-69
2022/07/14 05:59:35;;;;;;;4.23;2.47;;;;;;;21.74;56.43;98311.78;5055322;28;20271;-70
2022/07/14 06:02:02;;;;;;;5.03;2.60;;;;;;;21.85;56.69;98316.03;5055956;28;20208;-70
2022/07/14 06:04:29;;;;;;;4.00;2.27;;;;;;;21.89;54.85;98316.25;5055255;28;20624;-69
2022/07/14 06:06:55;;;;;;;6.07;2.40;;;;;;;22.17;56.02;98313.53;5055892;28;20287;-70
2022/07/14 06:09:22;;;;;;;6.33;2.50;;;;;;;22.06;54.91;98311.22;5055967;28;20339;-69
2022/07/14 06:11:48;;;;;;;4.40;2.50;;;;;;;22.35;54.46;98314.69;5056176;28;20212;-70
2022/07/14 06:14:15;;;;;;;2.90;2.10;;;;;;;22.48;53.77;98311.31;5055450;28;20303;-70
2022/07/14 06:17:03;;;;;;;3.87;2.10;;;;;;;22.35;54.31;98320.13;5055442;28;20228;-70
2022/07/14 06:19:30;;;;;;;4.70;2.10;;;;;;;22.24;54.00;98313.19;5055069;28;20235;-70
2022/07/14 06:21:56;;;;;;;4.83;1.90;;;;;;;22.37;53.93;98307.06;5055092;28;20687;-70
2022/07/14 06:24:22;;;;;;;6.17;2.17;;;;;;;22.49;53.24;98315.66;5055485;28;20233;-70
2022/07/14 06:26:49;;;;;;;4.90;1.80;;;;;;;22.56;53.44;98305.28;5054027;28;20288;-69
2022/07/14 06:29:15;;;;;;;2.30;1.73;;;;;;;22.67;52.71;98313.00;5054792;28;20312;-70
2022/07/14 06:31:42;;;;;;;2.78;1.70;;;;;;;22.73;52.87;98317.25;5055118;28;20288;-70
2022/07/14 06:34:08;;;;;;;2.67;1.55;;;;;;;22.79;52.25;98315.28;5054879;28;20209;-70
2022/07/14 06:36:34;;;;;;;6.13;1.60;;;;;;;22.95;52.24;98303.13;5054552;28;20644;-70
2022/07/14 06:39:01;;;;;;;3.90;1.55;;;;;;;22.74;52.50;98302.59;5054826;28;20236;-70
2022/07/14 06:41:27;;;;;;;3.88;1.80;;;;;;;22.69;52.95;98299.94;5054756;28;20210;-70
2022/07/14 06:43:54;;;;;;;2.85;1.80;;;;;;;23.00;52.40;98290.31;5054449;28;20686;-70
2022/07/14 06:46:20;;;;;;;4.43;1.80;;;;;;;23.12;52.28;98289.88;5054846;28;20296;-70
2022/07/14 06:48:46;;;;;;;3.72;1.90;;;;;;;23.35;51.05;98283.56;5054571;28;20734;-70
2022/07/14 06:51:13;;;;;;;2.05;1.55;;;;;;;23.17;51.36;98287.91;5054816;28;20292;-70
2022/07/14 06:53:39;;;;;;;3.95;1.80;;;;;;;23.12;51.48;98298.00;5054395;28;20212;-70
2022/07/14 06:56:06;;;;;;;3.80;2.17;;;;;;;23.17;51.80;98292.50;5054652;28;20225;-70
2022/07/14 06:58:32;;;;;;;3.92;1.70;;;;;;;23.41;52.16;98288.63;5054180;28;20243;-70
2022/07/14 07:00:59;;;;;;;6.97;2.42;;;;;;;23.76;51.02;98292.66;5055171;28;20246;-70
2022/07/14 07:03:25;;;;;;;4.95;2.35;;;;;;;23.83;50.58;98293.09;5054518;28;20566;-70
2022/07/14 07:08:36;;;;;;;3.47;2.55;;;;;;;23.93;50.74;98277.44;5054176;28;20266;-70
2022/07/14 07:11:02;;;;;;;4.70;2.90;;;;;;;24.31;49.80;98280.81;5054039;28;20694;-70
2022/07/14 07:13:29;;;;;;;5.93;3.20;;;;;;;24.23;49.04;98278.78;5054073;28;20570;-69
2022/07/14 07:15:55;;;;;;;9.43;3.88;;;;;;;24.16;49.75;98283.81;5054330;28;20307;-70
2022/07/14 07:18:21;;;;;;;6.95;3.47;;;;;;;24.30;49.49;98287.34;5054164;28;20647;-70
2022/07/14 07:20:48;;;;;;;5.30;3.08;;;;;;;24.42;49.27;98279.50;5054185;28;20216;-70
2022/07/14 07:23:14;;;;;;;8.15;2.67;;;;;;;24.62;49.06;98282.66;5054375;28;20209;-70
2022/07/14 07:25:41;;;;;;;4.20;2.70;;;;;;;24.49;49.62;98274.47;5053970;28;20241;-70
2022/07/14 07:28:07;;;;;;;10.88;2.70;;;;;;;24.69;50.00;98271.38;5053942;28;20209;-70
2022/07/14 07:30:34;;;;;;;4.32;2.20;;;;;;;24.77;49.85;98273.34;5054142;28;20304;-70
2022/07/14 07:33:00;;;;;;;7.68;2.88;;;;;;;24.65;49.73;98267.66;5054366;28;20205;-70
2022/07/14 07:35:26;;;;;;;8.85;3.13;;;;;;;24.71;50.29;98269.13;5053950;28;20221;-70
2022/07/14 07:37:53;;;;;;;7.03;3.25;;;;;;;24.80;48.46;98265.41;5053548;28;20288;-70
2022/07/14 07:40:19;;;;;;;6.32;2.83;;;;;;;24.94;48.78;98268.09;5053621;28;20225;-70
2022/07/14 07:42:46;;;;;;;5.53;2.90;;;;;;;24.97;48.27;98264.75;5053645;28;20746;-70
2022/07/14 07:45:12;;;;;;;6.60;3.00;;;;;;;25.10;48.23;98258.47;5053857;28;20286;-70
2022/07/14 07:47:39;;;;;;;7.50;2.85;;;;;;;25.03;48.44;98253.47;5053509;28;20664;-70
2022/07/14 07:50:06;;;;;;;7.15;2.80;;;;;;;25.19;47.87;98251.19;5052963;28;20723;-70
2022/07/14 07:52:33;;;;;;;9.02;3.10;;;;;;;25.35;48.73;98247.00;5053166;28;20544;-70
2022/07/14 07:54:59;;;;;;;7.47;3.00;;;;;;;25.64;47.83;98239.22;5053479;28;20210;-70
2022/07/14 07:57:26;;;;;;;4.32;2.90;;;;;;;25.73;47.24;98237.34;5053367;28;20328;-70
2022/07/14 07:59:52;;;;;;;5.88;2.80;;;;;;;25.71;47.60;98239.56;5053118;28;20233;-70
2022/07/14 08:02:24;;;;;;;5.90;2.80;;;;;;;25.75;46.32;98237.81;5053782;28;20301;-70
2022/07/14 08:04:51;;;;;;;8.35;2.63;;;;;;;25.71;46.68;98239.56;5053661;28;20189;-70
2022/07/14 08:07:17;;;;;;;10.45;2.72;;;;;;;25.82;47.21;98243.66;5053510;28;20201;-70
2022/07/14 08:09:44;;;;;;;5.75;2.40;;;;;;;26.03;46.69;98242.00;5053590;28;20662;-70
2022/07/14 08:12:10;;;;;;;10.02;2.83;;;;;;;26.20;46.45;98239.34;5054083;28;20292;-70
2022/07/14 08:17:20;;;;;;;5.25;2.70;;;;;;;26.22;45.91;98220.75;5050615;28;20544;-70
2022/07/14 08:19:47;;;;;;;6.20;2.70;;;;;;;26.22;45.83;98220.75;5053168;28;20319;-70
2022/07/14 08:22:14;;;;;;;3.95;2.60;;;;;;;26.44;45.13;98223.38;5053306;28;20288;-70
2022/07/14 08:24:41;;;;;;;9.70;2.90;;;;;;;26.38;45.11;98219.22;5052995;28;20622;-70
2022/07/14 08:27:08;;;;;;;7.15;3.30;;;;;;;26.59;45.26;98217.53;5053212;28;20292;-70
2022/07/14 08:29:34;;;;;;;7.95;2.95;;;;;;;26.88;44.23;98217.72;5053285;28;20312;-70
2022/07/14 08:32:00;;;;;;;7.07;2.53;;;;;;;27.06;42.23;98213.88;5053209;28;20209;-70
2022/07/14 08:34:27;;;;;;;10.73;3.35;;;;;;;27.17;43.12;98206.97;5052706;28;20209;-70
2022/07/14 08:36:53;;;;;;;8.80;2.95;;;;;;;27.20;43.70;98194.63;5052844;28;20316;-70
2022/07/14 08:39:19;;;;;;;10.27;3.15;;;;;;;27.57;42.97;98197.47;5052970;28;20228;-70
2022/07/14 08:41:47;;;;;;;7.63;3.17;;;;;;;27.68;41.65;98187.81;5052759;28;20680;-70
2022/07/14 08:44:14;;;;;;;5.38;2.70;;;;;;;27.63;41.44;98187.94;5053142;28;20211;-70
2022/07/14 08:46:40;;;;;;;3.67;2.67;;;;;;;27.74;41.03;98191.13;5053046;28;20291;-71
2022/07/14 08:49:07;;;;;;;4.97;2.53;;;;;;;27.94;41.44;98177.59;5052024;28;20225;-70
2022/07/14 08:51:37;;;;;;;5.80;2.28;;;;;;;28.08;41.19;98180.13;5053176;28;20208;-70
2022/07/14 08:54:04;;;;;;;5.85;2.45;;;;;;;27.92;41.75;98187.25;5053242;28;20201;-70
2022/07/14 08:56:32;;;;;;;5.53;2.38;;;;;;;28.02;41.03;98179.50;5052444;28;20271;-70
2022/07/14 08:58:58;;;;;;;5.32;2.60;;;;;;;28.28;40.08;98177.44;5052436;28;20781;-69
2022/07/14 09:01:26;;;;;;;7.72;2.40;;;;;;;28.39;39.19;98169.66;5053064;28;20299;-72
2022/07/14 09:03:53;;;;;;;3.13;1.98;;;;;;;28.52;38.05;98166.69;5052762;28;20663;-70
2022/07/14 09:06:52;;;;;;;5.50;2.25;;;;;;;28.56;37.83;98164.09;5053002;28;20205;-70
2022/07/14 09:09:28;;;;;;;8.23;2.40;;;;;;;28.71;37.47;98164.31;5052933;28;20325;-70
2022/07/14 09:11:59;;;;;;;6.70;2.20;;;;;;;28.71;37.63;98160.78;5052922;28;20284;-70
2022/07/14 09:14:27;;;;;;;7.20;2.20;;;;;;;28.59;37.40;98161.50;5052610;28;20219;-70
2022/07/14 09:17:14;;;;;;;7.28;2.58;;;;;;;29.12;36.84;98161.56;5052739;28;20594;-69
2022/07/14 09:20:02;;;;;;;6.68;2.10;;;;;;;29.32;31.85;98148.97;5052839;28;20228;-70
2022/07/14 09:22:29;;;;;;;5.70;1.98;;;;;;;29.38;33.25;98159.38;5052391;28;20664;-69
2022/07/14 09:24:55;;;;;;;3.97;1.65;;;;;;;29.67;31.81;98162.00;5052492;28;20291;-70
2022/07/14 09:27:22;;;;;;;6.72;1.55;;;;;;;29.65;26.59;98147.03;5052623;28;20614;-72
2022/07/14 09:29:55;;;;;;;2.63;1.38;;;;;;;29.66;25.93;98146.69;5052693;28;20225;-70
2022/07/14 09:32:43;;;;;;;3.05;1.50;;;;;;;29.85;25.73;98146.94;5052428;28;20613;-71
2022/07/14 09:35:12;;;;;;;4.35;1.55;;;;;;;29.94;24.66;98147.63;5052381;28;20200;-70
2022/07/14 09:37:40;;;;;;;5.25;1.60;;;;;;;30.29;25.24;98140.56;5052964;28;20329;-71
2022/07/14 09:40:10;;;;;;;2.75;1.35;;;;;;;30.18;25.16;98136.72;5052570;28;20225;-71
2022/07/14 09:42:58;;;;;;;4.80;1.40;;;;;;;30.38;24.73;98130.28;5052458;28;20205;-71
2022/07/14 09:45:29;;;;;;;3.30;1.55;;;;;;;30.64;24.58;98132.63;5052373;28;20235;-71
2022/07/14 09:47:58;;;;;;;2.72;1.38;;;;;;;30.54;24.99;98135.84;5052389;28;20308;-71
2022/07/14 09:50:35;;;;;;;2.88;1.70;;;;;;;30.53;23.89;98140.53;5052516;28;20255;-71
2022/07/14 09:53:30;;;;;;;1.73;1.35;;;;;;;30.85;24.50;98127.81;5052118;28;20664;-71
2022/07/14 09:56:07;;;;;;;1.67;1.52;;;;;;;30.50;25.21;98123.97;5050446;28;20233;-71
2022/07/14 09:58:45;;;;;;;3.95;1.60;;;;;;;30.42;24.33;98122.16;5052000;28;20233;-71
2022/07/14 10:01:14;;;;;;;3.20;1.40;;;;;;;30.03;24.94;98122.84;5054901;28;20714;-71
2022/07/14 10:03:42;;;;;;;4.30;1.50;;;;;;;30.34;25.40;98121.13;5055804;28;20212;-71
2022/07/14 10:06:10;;;;;;;3.25;1.65;;;;;;;30.41;25.74;98121.38;5055983;28;20292;-71
2022/07/14 10:08:43;;;;;;;3.70;1.80;;;;;;;30.74;24.74;98113.75;5055802;28;20309;-70
2022/07/14 10:11:11;;;;;;;3.60;1.58;;;;;;;31.01;24.59;98101.97;5055748;28;20271;-71
2022/07/14 10:13:38;;;;;;;1.58;1.30;;;;;;;30.89;23.74;98112.22;5055892;28;20233;-71
2022/07/14 10:16:06;;;;;;;1.77;1.30;;;;;;;30.96;24.23;98110.47;5055377;28;20791;-71
2022/07/14 10:18:33;;;;;;;5.05;1.30;;;;;;;30.93;23.87;98107.63;5055714;28;20311;-71
2022/07/14 10:21:04;;;;;;;3.15;1.27;;;;;;;31.39;23.36;98098.72;5054998;28;20295;-71
2022/07/14 10:23:31;;;;;;;1.67;1.20;;;;;;;31.30;24.09;98098.88;5055568;28;20277;-71
2022/07/14 10:25:59;;;;;;;2.67;1.55;;;;;;;31.30;23.12;98096.13;5054982;28;20632;-71
2022/07/14 10:28:27;;;;;;;3.13;1.60;;;;;;;31.40;24.06;98095.63;5055432;28;20229;-71
2022/07/14 10:31:05;;;;;;;1.50;1.30;;;;;;;31.87;23.27;98084.66;5055489;28;20232;-71
2022/07/14 10:33:50;;;;;;;2.53;1.60;;;;;;;32.11;23.00;98079.72;5055208;28;20281;-71
2022/07/14 10:36:17;;;;;;;3.58;1.73;;;;;;;31.82;23.74;98077.47;5055000;28;20219;-71
2022/07/14 10:38:56;;;;;;;3.20;1.55;;;;;;;32.02;23.14;98073.63;5054864;28;20263;-70
2022/07/14 10:41:53;;;;;;;3.85;1.50;;;;;;;31.65;23.74;98072.31;5054656;28;20189;-70
2022/07/14 10:44:23;;;;;;;3.25;1.52;;;;;;;31.61;23.67;98067.91;5053596;28;20626;-71
2022/07/14 10:46:52;;;;;;;2.13;1.55;;;;;;;31.57;22.82;98062.28;5055121;28;20204;-71
2022/07/14 10:49:19;;;;;;;2.05;1.30;;;;;;;32.04;23.80;98059.53;5054660;28;20235;-71
2022/07/14 10:51:50;;;;;;;4.20;1.35;;;;;;;31.72;22.90;98061.50;5054966;28;20205;-71
2022/07/14 10:54:30;;;;;;;4.43;1.50;;;;;;;31.54;22.97;98060.25;5054708;28;20205;-71
2022/07/14 10:57:14;;;;;;;2.90;1.60;;;;;;;31.82;23.52;98054.69;5054615;28;20229;-71
2022/07/14 10:59:42;;;;;;;2.63;1.60;;;;;;;32.21;22.72;98043.44;5054206;28;20244;-71
2022/07/14 11:02:11;;;;;;;1.70;1.42;;;;;;;32.06;22.86;98046.22;5054609;28;20212;-71
2022/07/14 11:05:03;;;;;;;2.78;1.50;;;;;;;32.39;22.75;98039.16;5054712;28;20251;-71
2022/07/14 11:07:38;;;;;;;1.75;1.65;;;;;;;32.74;22.73;98039.06;5054439;28;20212;-71
2022/07/14 11:10:15;;;;;;;2.00;1.50;;;;;;;32.64;22.08;98036.88;5054477;28;20220;-71
2022/07/14 11:13:00;;;;;;;5.82;1.70;;;;;;;32.73;22.01;98035.50;5053952;28;20220;-71
2022/07/14 11:15:42;;;;;;;1.55;1.45;;;;;;;33.09;21.74;98042.53;5054469;28;20756;-71
2022/07/14 11:18:21;;;;;;;5.85;1.73;;;;;;;32.82;23.06;98027.84;5054544;28;20670;-71
2022/07/14 11:21:14;;;;;;;5.32;1.60;;;;;;;32.67;23.25;98028.72;5054245;28;20278;-71
2022/07/14 11:23:49;;;;;;;4.15;1.70;;;;;;;32.46;22.82;98017.25;5054380;28;20197;-71
2022/07/14 11:26:35;;;;;;;5.35;1.52;;;;;;;32.15;23.28;98024.81;5054294;28;20307;-71
2022/07/14 11:29:03;;;;;;;2.15;1.50;;;;;;;32.07;23.77;98007.34;5053398;28;20719;-71
2022/07/14 11:31:50;;;;;;;9.50;1.67;;;;;;;31.90;24.36;98013.25;5053806;28;20209;-71
2022/07/14 11:37:16;;;;;;;2.17;1.80;;;;;;;32.23;23.53;97999.84;5053882;28;20200;-71
2022/07/14 11:39:44;;;;;;;3.42;1.70;;;;;;;32.24;24.05;97993.16;5053648;28;20595;-71
2022/07/14 11:42:12;;;;;;;3.72;1.75;;;;;;;32.31;23.56;98004.38;5053890;28;20213;-71
2022/07/14 11:44:39;;;;;;;6.00;1.88;;;;;;;32.35;24.42;97991.50;5053639;28;20680;-72
2022/07/14 11:47:17;;;;;;;4.18;1.70;;;;;;;32.40;25.08;97993.13;5053719;28;20251;-71
2022/07/14 11:49:53;;;;;;;1.92;1.70;;;;;;;32.36;25.08;97975.75;5053769;28;20308;-71
2022/07/14 11:52:29;;;;;;;6.00;1.90;;;;;;;32.77;25.47;97975.81;5053911;28;20207;-71
2022/07/14 11:54:58;;;;;;;6.53;1.83;;;;;;;32.68;24.30;97980.75;5053837;28;20300;-71
2022/07/14 11:57:25;;;;;;;5.53;1.80;;;;;;;32.20;24.81;97983.25;5053724;28;20260;-71